Pagrindinis puslapis
METAR-TAF:

METAR-TAF

Oro uostai :

Jaroslavlis, Rusija

platuma: 57-33-38N, ilguma: 040-09-27E, Aukštis: 87 m

Dabartinis oras

Ataskaita buvo paskelbta 22 minutes, ne 16:30 UTC
Vėjas 4 kt iš Šiaurės/Šiaurės Rytų
Temperatūra 19°C
Drėgmė 68%
Slėgis 1015 hPa
Matomumas 10 km arba daugiau
nėra debesų žemiau 1500 m ir nėra kamuolinių lietaus debesų

METAR: UUDL 091630Z 03002MPS CAVOK 19/13 Q1015 R23/////// NOSIG RMK QFE753

Laikas: 19:52 (16:52 UTC)

Prognozė

Ataskaita buvo paskelbta 2 valandos ir 52 minutes, ne 14:00 UTC
Prognozė galioja nuo 09 metu 15 UTC su 10 metu 15 UTC
Vėjas 6 kt iš Šiaurės
Matomumas 10 km arba daugiau
Su prošvaistėmis ne aukštis 4000 ft

TAF: UUDL 091400Z 0915/1015 36003MPS 9999 BKN040 TX24/1012Z TN13/1001Z

Orai ataskaitas ir orų prognozės (METAR, TAF).

turimą stotys yra geltonos ir raudonos taškus žemėlapyje.

Perkelti pele per norėdami pamatyti stoties vardą.

Tada spustelėkite, norėdami matyti oro stebėjimo ir prognozės.

Norėdami pakeisti žemėlapį: spustelėkite ant žalios mygtukų su juodo kryžiaus žemyn,; žalią mygtuką su brūkšneliu, jei norite nutolinti; arba žalių rodyklių gretimoms žemėlapius.


METAR-TAF: